Time;durP1;ratioP1;P1;durP2;ratioP2;P2;SDS_P1;SDS_P2;PMS_P1;PMS_P2;Temp;Humidity;BMP_temperature;BMP_pressure;BME280_temperature;BME280_humidity;BME280_pressure;Samples;Min_cycle;Max_cycle;Signal;HPM_P1;HPM_P2
2021/08/24 00:00:04;;;;;;;;;;;;;;;;;;5133849;27;19930;-72
2021/08/24 00:02:30;;;;;;;;;;;;;;;;;;5133931;27;19923;-71
2021/08/24 00:04:56;;;;;;;;;;;;;;;;;;5133514;27;19924;-72
2021/08/24 00:07:23;;;;;;;;;;;;;;;;;;5134059;27;19931;-72
2021/08/24 00:09:49;;;;;;;;;;;;;;;;;;5133446;27;19927;-72
2021/08/24 00:12:15;;;;;;;;;;;;;;;;;;5133971;27;19927;-72
2021/08/24 00:14:42;;;;;;;;;;;;;;;;;;5133288;27;20404;-72
2021/08/24 00:17:08;;;;;;;;;;;;;;;;;;5133984;27;19923;-71
2021/08/24 00:19:34;;;;;;;;;;;;;;;;;;5133305;27;20389;-72
2021/08/24 00:22:00;;;;;;;;;;;;;;;;;;5133515;27;19923;-72
2021/08/24 00:24:27;;;;;;;;;;;;;;;;;;5133577;27;20373;-72
2021/08/24 00:26:53;;;;;;;;;;;;;;;;;;5133693;27;19927;-71
2021/08/24 00:29:19;;;;;;;;;;;;;;;;;;5133335;28;19928;-71
2021/08/24 00:31:46;;;;;;;;;;;;;;;;;;5133523;28;19930;-71
2021/08/24 00:34:12;;;;;;;;;;;;;;;;;;5133387;28;19931;-71
2021/08/24 00:36:38;;;;;;;;;;;;;;;;;;5133336;28;19923;-71
2021/08/24 00:39:04;;;;;;;;;;;;;;;;;;5133699;28;19923;-71
2021/08/24 00:41:31;;;;;;;;;;;;;;;;;;5133891;28;19924;-71
2021/08/24 00:43:57;;;;;;;;;;;;;;;;;;5132979;28;19924;-71
2021/08/24 00:46:23;;;;;;;;;;;;;;;;;;5133642;28;19947;-71
2021/08/24 00:48:49;;;;;;;;;;;;;;;;;;5134135;27;19927;-72
2021/08/24 00:51:16;;;;;;;;;;;;;;;;;;5137907;27;19930;-71
2021/08/24 00:53:42;;;;;;;;;;;;;;;;;;5137169;27;19924;-71
2021/08/24 00:56:08;;;;;;;;;;;;;;;;;;5137786;27;19924;-71
2021/08/24 00:58:35;;;;;;;;;;;;;;;;;;5137016;27;19927;-71
2021/08/24 01:01:01;;;;;;;;;;;;;;;;;;5137712;27;19928;-71
2021/08/24 01:03:27;;;;;;;;;;;;;;;;;;5137158;27;19931;-71
2021/08/24 01:05:54;;;;;;;;;;;;;;;;;;5137206;27;19931;-71
2021/08/24 01:08:20;;;;;;;;;;;;;;;;;;5136960;27;19942;-71
2021/08/24 01:10:46;;;;;;;;;;;;;;;;;;5137127;27;19930;-71
2021/08/24 01:13:12;;;;;;;;;;;;;;;;;;5137091;27;19930;-71
2021/08/24 01:15:39;;;;;;;;;;;;;;;;;;5137052;27;19930;-71
2021/08/24 01:18:05;;;;;;;;;;;;;;;;;;5136913;27;19924;-71
2021/08/24 01:20:31;;;;;;;;;;;;;;;;;;5137003;27;20013;-70
2021/08/24 01:22:58;;;;;;;;;;;;;;;;;;5137145;27;20003;-72
2021/08/24 01:25:24;;;;;;;;;;;;;;;;;;5137001;27;19930;-72
2021/08/24 01:27:50;;;;;;;;;;;;;;;;;;5136844;27;20301;-72
2021/08/24 01:30:16;;;;;;;;;;;;;;;;;;5137212;27;19930;-72
2021/08/24 01:32:44;;;;;;;;;;;;;;;;;;5136381;27;19945;-72
2021/08/24 01:35:11;;;;;;;;;;;;;;;;;;5136574;27;20450;-72
2021/08/24 01:37:37;;;;;;;;;;;;;;;;;;5136752;27;19924;-72
2021/08/24 01:40:04;;;;;;;;;;;;;;;;;;5137013;27;19923;-72
2021/08/24 01:42:30;;;;;;;;;;;;;;;;;;5136935;27;20310;-72
2021/08/24 01:44:56;;;;;;;;;;;;;;;;;;5136332;27;19923;-72
2021/08/24 01:47:22;;;;;;;;;;;;;;;;;;5136838;27;20036;-72
2021/08/24 01:49:49;;;;;;;;;;;;;;;;;;5136440;27;19923;-72
2021/08/24 01:52:15;;;;;;;;;;;;;;;;;;5136446;27;20321;-73
2021/08/24 01:54:41;;;;;;;;;;;;;;;;;;5136303;27;19923;-73
2021/08/24 01:57:07;;;;;;;;;;;;;;;;;;5136176;27;20301;-73
2021/08/24 01:59:34;;;;;;;;;;;;;;;;;;5136252;27;19924;-73
2021/08/24 02:02:00;;;;;;;;;;;;;;;;;;5135503;27;20385;-72
2021/08/24 02:04:26;;;;;;;;;;;;;;;;;;5136276;27;19931;-73
2021/08/24 02:06:53;;;;;;;;;;;;;;;;;;5135813;27;19924;-72
2021/08/24 02:09:19;;;;;;;;;;;;;;;;;;5136418;27;19924;-71
2021/08/24 02:11:45;;;;;;;;;;;;;;;;;;5136168;27;19924;-72
2021/08/24 02:14:12;;;;;;;;;;;;;;;;;;5135794;27;20385;-72
2021/08/24 02:16:38;;;;;;;;;;;;;;;;;;5135871;27;19924;-73
2021/08/24 02:19:04;;;;;;;;;;;;;;;;;;5135765;27;19923;-72
2021/08/24 02:21:30;;;;;;;;;;;;;;;;;;5135463;27;19927;-73
2021/08/24 02:23:57;;;;;;;;;;;;;;;;;;5135386;27;19938;-73
2021/08/24 02:26:23;;;;;;;;;;;;;;;;;;5135928;27;19923;-73
2021/08/24 02:28:49;;;;;;;;;;;;;;;;;;5135360;27;19932;-73
2021/08/24 02:31:15;;;;;;;;;;;;;;;;;;5135755;27;19946;-73
2021/08/24 02:33:42;;;;;;;;;;;;;;;;;;5135195;27;19923;-74
2021/08/24 02:36:08;;;;;;;;;;;;;;;;;;5135768;27;19930;-74
2021/08/24 02:38:34;;;;;;;;;;;;;;;;;;5135016;27;19923;-74
2021/08/24 02:41:01;;;;;;;;;;;;;;;;;;5135791;27;19934;-74
2021/08/24 02:43:27;;;;;;;;;;;;;;;;;;5135477;27;19930;-74
2021/08/24 02:45:53;;;;;;;;;;;;;;;;;;5135260;27;19945;-74
2021/08/24 02:48:19;;;;;;;;;;;;;;;;;;5135237;27;19923;-74
2021/08/24 02:50:46;;;;;;;;;;;;;;;;;;5135229;27;19923;-74
2021/08/24 02:53:12;;;;;;;;;;;;;;;;;;5135032;27;19930;-73
2021/08/24 02:55:38;;;;;;;;;;;;;;;;;;5134839;27;20406;-74
2021/08/24 02:58:04;;;;;;;;;;;;;;;;;;5135403;27;19923;-74
2021/08/24 03:00:31;;;;;;;;;;;;;;;;;;5134980;27;19927;-74
2021/08/24 03:02:57;;;;;;;;;;;;;;;;;;5134995;27;19923;-73
2021/08/24 03:05:23;;;;;;;;;;;;;;;;;;5134671;27;19923;-73
2021/08/24 03:07:50;;;;;;;;;;;;;;;;;;5134863;27;19930;-73
2021/08/24 03:10:16;;;;;;;;;;;;;;;;;;5134772;27;19923;-71
2021/08/24 03:12:42;;;;;;;;;;;;;;;;;;5133743;27;19924;-71
2021/08/24 03:15:08;;;;;;;;;;;;;;;;;;5134667;27;19924;-70
2021/08/24 03:17:35;;;;;;;;;;;;;;;;;;5134730;27;19927;-73
2021/08/24 03:20:01;;;;;;;;;;;;;;;;;;5134335;27;19927;-73
2021/08/24 03:22:27;;;;;;;;;;;;;;;;;;5134846;27;19930;-73
2021/08/24 03:24:54;;;;;;;;;;;;;;;;;;5134117;27;19935;-72
2021/08/24 03:27:20;;;;;;;;;;;;;;;;;;5134781;27;19923;-72
2021/08/24 03:29:46;;;;;;;;;;;;;;;;;;5134165;27;19930;-72
2021/08/24 03:32:12;;;;;;;;;;;;;;;;;;5134511;27;19947;-74
2021/08/24 03:34:39;;;;;;;;;;;;;;;;;;5140090;27;19930;-74
2021/08/24 03:37:05;;;;;;;;;;;;;;;;;;5155056;27;20479;-74
2021/08/24 03:39:31;;;;;;;;;;;;;;;;;;5155190;27;19927;-73
2021/08/24 03:41:57;;;;;;;;;;;;;;;;;;5154688;27;19923;-74
2021/08/24 03:44:24;;;;;;;;;;;;;;;;;;5155140;27;19923;-74
2021/08/24 03:46:50;;;;;;;;;;;;;;;;;;5154801;27;19923;-74
2021/08/24 03:49:16;;;;;;;;;;;;;;;;;;5155171;27;19932;-74
2021/08/24 03:51:43;;;;;;;;;;;;;;;;;;5154407;27;19924;-73
2021/08/24 03:54:09;;;;;;;;;;;;;;;;;;5154982;27;19930;-73
2021/08/24 03:56:35;;;;;;;;;;;;;;;;;;5154438;27;19927;-73
2021/08/24 03:59:01;;;;;;;;;;;;;;;;;;5154760;27;19927;-73
2021/08/24 04:01:28;;;;;;;;;;;;;;;;;;5154502;27;19923;-73
2021/08/24 04:03:54;;;;;;;;;;;;;;;;;;5154482;27;19949;-74
2021/08/24 04:06:20;;;;;;;;;;;;;;;;;;5154414;27;19923;-71
2021/08/24 04:08:47;;;;;;;;;;;;;;;;;;5154455;27;19923;-71
2021/08/24 04:11:13;;;;;;;;;;;;;;;;;;5154448;27;19923;-71
2021/08/24 04:13:39;;;;;;;;;;;;;;;;;;5154279;27;19923;-71
2021/08/24 04:16:05;;;;;;;;;;;;;;;;;;5154666;27;19924;-71
2021/08/24 04:18:32;;;;;;;;;;;;;;;;;;5154377;27;20282;-71
2021/08/24 04:20:58;;;;;;;;;;;;;;;;;;5154073;27;19948;-70
2021/08/24 04:23:24;;;;;;;;;;;;;;;;;;5153865;27;20391;-71
2021/08/24 04:25:50;;;;;;;;;;;;;;;;;;5154160;27;19931;-72
2021/08/24 04:28:17;;;;;;;;;;;;;;;;;;5153912;27;19935;-71
2021/08/24 04:30:43;;;;;;;;;;;;;;;;;;5154254;27;19923;-70
2021/08/24 04:33:09;;;;;;;;;;;;;;;;;;5154163;27;19930;-71
2021/08/24 04:35:36;;;;;;;;;;;;;;;;;;5154160;27;19927;-71
2021/08/24 04:38:02;;;;;;;;;;;;;;;;;;5153929;27;20411;-68
2021/08/24 04:40:30;;;;;;;;;;;;;;;;;;5154426;27;19923;-70
2021/08/24 04:42:56;;;;;;;;;;;;;;;;;;5154095;27;19923;-69
2021/08/24 04:45:22;;;;;;;;;;;;;;;;;;5153906;27;19923;-70
2021/08/24 04:47:49;;;;;;;;;;;;;;;;;;5154045;27;19946;-71
2021/08/24 04:50:15;;;;;;;;;;;;;;;;;;5153849;27;19923;-71
2021/08/24 04:52:41;;;;;;;;;;;;;;;;;;5154052;27;19946;-69
2021/08/24 04:55:08;;;;;;;;;;;;;;;;;;5153882;27;19923;-69
2021/08/24 04:57:34;;;;;;;;;;;;;;;;;;5153980;27;20008;-69
2021/08/24 05:00:00;;;;;;;;;;;;;;;;;;5153846;27;19923;-69
2021/08/24 05:02:26;;;;;;;;;;;;;;;;;;5154227;27;19923;-69
2021/08/24 05:04:53;;;;;;;;;;;;;;;;;;5153293;27;19930;-69
2021/08/24 05:07:19;;;;;;;;;;;;;;;;;;5153793;27;20447;-69
2021/08/24 05:09:45;;;;;;;;;;;;;;;;;;5153498;27;19923;-69
2021/08/24 05:12:12;;;;;;;;;;;;;;;;;;5153912;27;19927;-68
2021/08/24 05:14:38;;;;;;;;;;;;;;;;;;5153437;27;19935;-70
2021/08/24 05:17:04;;;;;;;;;;;;;;;;;;5153893;27;19923;-69
2021/08/24 05:19:30;;;;;;;;;;;;;;;;;;5153729;27;19923;-69
2021/08/24 05:21:57;;;;;;;;;;;;;;;;;;5153255;27;19930;-71
2021/08/24 05:24:23;;;;;;;;;;;;;;;;;;5153582;27;19923;-70
2021/08/24 05:26:49;;;;;;;;;;;;;;;;;;5153640;27;19930;-73
2021/08/24 05:29:16;;;;;;;;;;;;;;;;;;5153525;27;19924;-72
2021/08/24 05:31:43;;;;;;;;;;;;;;;;;;5153288;27;19952;-70
2021/08/24 05:34:09;;;;;;;;;;;;;;;;;;5153644;27;19946;-71
2021/08/24 05:36:35;;;;;;;;;;;;;;;;;;5155303;27;19927;-73
2021/08/24 05:39:02;;;;;;;;;;;;;;;;;;5157576;27;19939;-71
2021/08/24 05:41:28;;;;;;;;;;;;;;;;;;5157143;27;19930;-71
2021/08/24 05:43:55;;;;;;;;;;;;;;;;;;5157248;27;19927;-70
2021/08/24 05:46:21;;;;;;;;;;;;;;;;;;5157031;27;19923;-70
2021/08/24 05:48:47;;;;;;;;;;;;;;;;;;5157362;27;19923;-70
2021/08/24 05:51:14;;;;;;;;;;;;;;;;;;5156942;27;19930;-73
2021/08/24 05:53:40;;;;;;;;;;;;;;;;;;5157152;27;19923;-74
2021/08/24 05:56:06;;;;;;;;;;;;;;;;;;5157082;27;19923;-72
2021/08/24 05:58:32;;;;;;;;;;;;;;;;;;5157278;27;19933;-72
2021/08/24 06:00:59;;;;;;;;;;;;;;;;;;5157046;27;19923;-72
2021/08/24 06:03:25;;;;;;;;;;;;;;;;;;5156846;27;19930;-71
2021/08/24 06:05:51;;;;;;;;;;;;;;;;;;5156756;27;19938;-72
2021/08/24 06:08:18;;;;;;;;;;;;;;;;;;5156626;27;20392;-72
2021/08/24 06:10:44;;;;;;;;;;;;;;;;;;5156441;27;19923;-71
2021/08/24 06:13:10;;;;;;;;;;;;;;;;;;5157035;27;19923;-71
2021/08/24 06:15:36;;;;;;;;;;;;;;;;;;5156364;27;19923;-72
2021/08/24 06:18:03;;;;;;;;;;;;;;;;;;5156755;27;19927;-72
2021/08/24 06:20:29;;;;;;;;;;;;;;;;;;5156436;27;20336;-72
2021/08/24 06:22:55;;;;;;;;;;;;;;;;;;5156100;27;19923;-72
2021/08/24 06:25:22;;;;;;;;;;;;;;;;;;5156684;27;19923;-71
2021/08/24 06:27:49;;;;;;;;;;;;;;;;;;5155981;27;19927;-72
2021/08/24 06:30:15;;;;;;;;;;;;;;;;;;5156618;27;19999;-71
2021/08/24 06:32:41;;;;;;;;;;;;;;;;;;5155941;27;20383;-72
2021/08/24 06:35:07;;;;;;;;;;;;;;;;;;5156184;27;19923;-72
2021/08/24 06:37:34;;;;;;;;;;;;;;;;;;5156168;27;19923;-72
2021/08/24 06:40:00;;;;;;;;;;;;;;;;;;5156244;27;19930;-72
2021/08/24 06:42:26;;;;;;;;;;;;;;;;;;5156449;27;19930;-72
2021/08/24 06:44:53;;;;;;;;;;;;;;;;;;5155630;27;20278;-72
2021/08/24 06:47:19;;;;;;;;;;;;;;;;;;5156108;27;19931;-72
2021/08/24 06:49:45;;;;;;;;;;;;;;;;;;5155996;27;19945;-72
2021/08/24 06:52:12;;;;;;;;;;;;;;;;;;5155781;27;20365;-72
2021/08/24 06:54:38;;;;;;;;;;;;;;;;;;5155869;27;19930;-72
2021/08/24 06:57:04;;;;;;;;;;;;;;;;;;5155848;27;19929;-72
2021/08/24 06:59:31;;;;;;;;;;;;;;;;;;5155575;27;20437;-71
2021/08/24 07:01:57;;;;;;;;;;;;;;;;;;5155346;27;20389;-71
2021/08/24 07:04:23;;;;;;;;;;;;;;;;;;5155935;27;19934;-72
2021/08/24 07:06:50;;;;;;;;;;;;;;;;;;5155563;27;19930;-72
2021/08/24 07:09:17;;;;;;;;;;;;;;;;;;5155755;27;19930;-72
2021/08/24 07:11:43;;;;;;;;;;;;;;;;;;5155220;27;20376;-72
2021/08/24 07:14:10;;;;;;;;;;;;;;;;;;5155402;27;19923;-72
2021/08/24 07:16:37;;;;;;;;;;;;;;;;;;5155689;27;19946;-72
2021/08/24 07:19:03;;;;;;;;;;;;;;;;;;5155385;27;19927;-72
2021/08/24 07:21:29;;;;;;;;;;;;;;;;;;5155142;27;19923;-72
2021/08/24 07:23:55;;;;;;;;;;;;;;;;;;5155076;27;20411;-72
2021/08/24 07:26:22;;;;;;;;;;;;;;;;;;5155433;27;19923;-72
2021/08/24 07:28:48;;;;;;;;;;;;;;;;;;5155396;27;19923;-72
2021/08/24 07:31:14;;;;;;;;;;;;;;;;;;5154934;27;19923;-72
2021/08/24 07:33:41;;;;;;;;;;;;;;;;;;5155196;27;19923;-72
2021/08/24 07:36:07;;;;;;;;;;;;;;;;;;5155295;27;19923;-72
2021/08/24 07:38:33;;;;;;;;;;;;;;;;;;5154934;27;20417;-72
2021/08/24 07:40:59;;;;;;;;;;;;;;;;;;5154885;27;19923;-72
2021/08/24 07:43:26;;;;;;;;;;;;;;;;;;5155059;27;19946;-72
2021/08/24 07:45:52;;;;;;;;;;;;;;;;;;5154335;27;19923;-72
2021/08/24 07:48:18;;;;;;;;;;;;;;;;;;5154972;27;19946;-72
2021/08/24 07:50:45;;;;;;;;;;;;;;;;;;5154526;27;19931;-72
2021/08/24 07:53:11;;;;;;;;;;;;;;;;;;5154841;27;19930;-72
2021/08/24 07:55:37;;;;;;;;;;;;;;;;;;5154927;27;20047;-72
2021/08/24 07:58:03;;;;;;;;;;;;;;;;;;5154188;27;19934;-72
2021/08/24 08:00:30;;;;;;;;;;;;;;;;;;5154719;27;19930;-72
2021/08/24 08:02:56;;;;;;;;;;;;;;;;;;5154105;27;20377;-72
2021/08/24 08:05:22;;;;;;;;;;;;;;;;;;5154368;27;19929;-72
2021/08/24 08:07:49;;;;;;;;;;;;;;;;;;5154516;27;19924;-72
2021/08/24 08:10:15;;;;;;;;;;;;;;;;;;5154673;27;19963;-72
2021/08/24 08:12:41;;;;;;;;;;;;;;;;;;5154463;27;19930;-72
2021/08/24 08:15:08;;;;;;;;;;;;;;;;;;5154364;27;20384;-72
2021/08/24 08:17:34;;;;;;;;;;;;;;;;;;5154047;27;19927;-72
2021/08/24 08:20:00;;;;;;;;;;;;;;;;;;5154421;27;19931;-71
2021/08/24 08:22:27;;;;;;;;;;;;;;;;;;5154721;27;19922;-72
2021/08/24 08:24:53;;;;;;;;;;;;;;;;;;5154239;27;19923;-72
2021/08/24 08:27:19;;;;;;;;;;;;;;;;;;5154512;27;19953;-72
2021/08/24 08:29:45;;;;;;;;;;;;;;;;;;5153932;27;19929;-72
2021/08/24 08:32:12;;;;;;;;;;;;;;;;;;5154397;27;19923;-72
2021/08/24 08:34:38;;;;;;;;;;;;;;;;;;5153879;27;20377;-72
2021/08/24 08:37:04;;;;;;;;;;;;;;;;;;5154335;27;19935;-72
2021/08/24 08:39:31;;;;;;;;;;;;;;;;;;5154303;27;19952;-72
2021/08/24 08:41:57;;;;;;;;;;;;;;;;;;5153908;27;19946;-72
2021/08/24 08:44:23;;;;;;;;;;;;;;;;;;5154031;27;19930;-72
2021/08/24 08:46:49;;;;;;;;;;;;;;;;;;5153932;27;19946;-72
2021/08/24 08:49:16;;;;;;;;;;;;;;;;;;5154011;27;19923;-72
2021/08/24 08:51:42;;;;;;;;;;;;;;;;;;5153944;27;19930;-72
2021/08/24 08:54:08;;;;;;;;;;;;;;;;;;5154185;27;20031;-72
2021/08/24 08:56:35;;;;;;;;;;;;;;;;;;5153665;27;19927;-72
2021/08/24 08:59:01;;;;;;;;;;;;;;;;;;5154204;27;19923;-72
2021/08/24 09:01:27;;;;;;;;;;;;;;;;;;5154108;27;19923;-71
2021/08/24 09:03:54;;;;;;;;;;;;;;;;;;5153906;27;19926;-72
2021/08/24 09:06:20;;;;;;;;;;;;;;;;;;5153706;27;19924;-72
2021/08/24 09:08:46;;;;;;;;;;;;;;;;;;5153766;27;20369;-72
2021/08/24 09:11:13;;;;;;;;;;;;;;;;;;5155401;27;19923;-71
2021/08/24 09:13:39;;;;;;;;;;;;;;;;;;5157795;27;19923;-72
2021/08/24 09:16:05;;;;;;;;;;;;;;;;;;5158214;27;19927;-71
2021/08/24 09:18:31;;;;;;;;;;;;;;;;;;5158119;27;19923;-71
2021/08/24 09:20:58;;;;;;;;;;;;;;;;;;5157143;27;19923;-72
2021/08/24 09:23:24;;;;;;;;;;;;;;;;;;5157934;27;19930;-71
2021/08/24 09:25:50;;;;;;;;;;;;;;;;;;5157160;27;20280;-71
2021/08/24 09:28:18;;;;;;;;;;;;;;;;;;5157559;27;19930;-71
2021/08/24 09:30:44;;;;;;;;;;;;;;;;;;5157573;27;19923;-72
2021/08/24 09:33:10;;;;;;;;;;;;;;;;;;5157769;27;19931;-72
2021/08/24 09:35:37;;;;;;;;;;;;;;;;;;5157024;27;20280;-71
2021/08/24 09:38:03;;;;;;;;;;;;;;;;;;5157665;27;19923;-72
2021/08/24 09:40:29;;;;;;;;;;;;;;;;;;5157460;27;20306;-72
2021/08/24 09:42:56;;;;;;;;;;;;;;;;;;5157297;27;19927;-72
2021/08/24 09:45:22;;;;;;;;;;;;;;;;;;5157006;27;19930;-71
2021/08/24 09:47:48;;;;;;;;;;;;;;;;;;5157195;27;19930;-73
2021/08/24 09:50:15;;;;;;;;;;;;;;;;;;5157200;27;20293;-72
2021/08/24 09:52:41;;;;;;;;;;;;;;;;;;5156720;27;19923;-72
2021/08/24 09:55:08;;;;;;;;;;;;;;;;;;5157314;27;19923;-72
2021/08/24 09:57:34;;;;;;;;;;;;;;;;;;5156672;27;19923;-73
2021/08/24 10:00:00;;;;;;;;;;;;;;;;;;5156907;27;19930;-70
2021/08/24 10:02:27;;;;;;;;;;;;;;;;;;5157016;27;19923;-70
2021/08/24 10:04:54;;;;;;;;;;;;;;;;;;5156579;27;20292;-70
2021/08/24 10:07:20;;;;;;;;;;;;;;;;;;5156988;27;20425;-72
2021/08/24 10:09:46;;;;;;;;;;;;;;;;;;5156820;27;19927;-72
2021/08/24 10:12:13;;;;;;;;;;;;;;;;;;5156979;27;19929;-73
2021/08/24 10:14:39;;;;;;;;;;;;;;;;;;5156713;27;20025;-73
2021/08/24 10:17:05;;;;;;;;;;;;;;;;;;5156561;27;19930;-73
2021/08/24 10:19:32;;;;;;;;;;;;;;;;;;5157032;27;19923;-73
2021/08/24 10:21:58;;;;;;;;;;;;;;;;;;5155463;27;20288;-72
2021/08/24 10:24:24;;;;;;;;;;;;;;;;;;5156418;27;19923;-73
2021/08/24 10:26:50;;;;;;;;;;;;;;;;;;5156231;27;19930;-73
2021/08/24 10:29:17;;;;;;;;;;;;;;;;;;5156429;27;19924;-73
2021/08/24 10:31:43;;;;;;;;;;;;;;;;;;5156266;27;19930;-74
2021/08/24 10:34:09;;;;;;;;;;;;;;;;;;5156544;27;19923;-73
2021/08/24 10:36:36;;;;;;;;;;;;;;;;;;5156069;27;19930;-74
2021/08/24 10:39:02;;;;;;;;;;;;;;;;;;5156405;27;19931;-73
2021/08/24 10:41:29;;;;;;;;;;;;;;;;;;5156082;27;19938;-72
2021/08/24 10:43:55;;;;;;;;;;;;;;;;;;5155736;27;20266;-72
2021/08/24 10:46:21;;;;;;;;;;;;;;;;;;5156086;27;19923;-72
2021/08/24 10:48:48;;;;;;;;;;;;;;;;;;5155775;27;20311;-72
2021/08/24 10:51:14;;;;;;;;;;;;;;;;;;5155952;27;20274;-72
2021/08/24 10:53:40;;;;;;;;;;;;;;;;;;5155875;27;19929;-73
2021/08/24 10:56:07;;;;;;;;;;;;;;;;;;5156052;27;19927;-72
2021/08/24 10:58:33;;;;;;;;;;;;;;;;;;5155777;27;20293;-74
2021/08/24 11:00:59;;;;;;;;;;;;;;;;;;5155615;27;19930;-72
2021/08/24 11:03:25;;;;;;;;;;;;;;;;;;5155967;27;19923;-72
2021/08/24 11:05:52;;;;;;;;;;;;;;;;;;5155485;27;19931;-73
2021/08/24 11:08:18;;;;;;;;;;;;;;;;;;5155575;27;19923;-73
2021/08/24 11:10:44;;;;;;;;;;;;;;;;;;5155631;27;19923;-72
2021/08/24 11:13:12;;;;;;;;;;;;;;;;;;5155668;27;20482;-72
2021/08/24 11:15:38;;;;;;;;;;;;;;;;;;5155113;27;19958;-73
2021/08/24 11:18:04;;;;;;;;;;;;;;;;;;5155630;27;19930;-74
2021/08/24 11:20:31;;;;;;;;;;;;;;;;;;5155149;27;20392;-72
2021/08/24 11:22:57;;;;;;;;;;;;;;;;;;5154925;27;19927;-72
2021/08/24 11:25:23;;;;;;;;;;;;;;;;;;5155497;27;19923;-72
2021/08/24 11:27:50;;;;;;;;;;;;;;;;;;5154831;27;20368;-72
2021/08/24 11:30:16;;;;;;;;;;;;;;;;;;5155078;27;19923;-72
2021/08/24 11:32:42;;;;;;;;;;;;;;;;;;5154830;27;19946;-73
2021/08/24 11:35:11;;;;;;;;;;;;;;;;;;5154116;27;20203;-73
2021/08/24 11:37:37;;;;;;;;;;;;;;;;;;5155288;27;19933;-73
2021/08/24 11:40:03;;;;;;;;;;;;;;;;;;5155047;27;19923;-72
2021/08/24 11:42:29;;;;;;;;;;;;;;;;;;5155037;27;19923;-72
2021/08/24 11:44:56;;;;;;;;;;;;;;;;;;5154916;27;19929;-72
2021/08/24 11:47:22;;;;;;;;;;;;;;;;;;5154628;27;20383;-73
2021/08/24 11:49:48;;;;;;;;;;;;;;;;;;5154821;27;19930;-72
2021/08/24 11:52:15;;;;;;;;;;;;;;;;;;5154961;27;19930;-73
2021/08/24 11:54:41;;;;;;;;;;;;;;;;;;5154368;27;19928;-73
2021/08/24 11:57:09;;;;;;;;;;;;;;;;;;5154593;27;19927;-73
2021/08/24 11:59:35;;;;;;;;;;;;;;;;;;5154502;27;19923;-72
2021/08/24 12:02:01;;;;;;;;;;;;;;;;;;5154892;27;19923;-72
2021/08/24 12:04:27;;;;;;;;;;;;;;;;;;5154815;27;19952;-71
2021/08/24 12:06:54;;;;;;;;;;;;;;;;;;5154178;27;19927;-72
2021/08/24 12:09:20;;;;;;;;;;;;;;;;;;5154384;27;20758;-72
2021/08/24 12:11:46;;;;;;;;;;;;;;;;;;5154031;27;19938;-73
2021/08/24 12:14:13;;;;;;;;;;;;;;;;;;5154872;27;19930;-72
2021/08/24 12:16:39;;;;;;;;;;;;;;;;;;5154332;27;19930;-73
2021/08/24 12:19:05;;;;;;;;;;;;;;;;;;5154292;27;19923;-74
2021/08/24 12:21:32;;;;;;;;;;;;;;;;;;5154118;27;19923;-74
2021/08/24 12:23:58;;;;;;;;;;;;;;;;;;5153969;27;19927;-73
2021/08/24 12:26:25;;;;;;;;;;;;;;;;;;5154441;27;19968;-74
2021/08/24 12:28:51;;;;;;;;;;;;;;;;;;5154244;27;20023;-73
2021/08/24 12:31:17;;;;;;;;;;;;;;;;;;5154306;27;19923;-73
2021/08/24 12:33:43;;;;;;;;;;;;;;;;;;5154373;27;19923;-72
2021/08/24 12:36:10;;;;;;;;;;;;;;;;;;5154162;27;19930;-71
2021/08/24 12:38:36;;;;;;;;;;;;;;;;;;5154127;27;19934;-72
2021/08/24 12:41:02;;;;;;;;;;;;;;;;;;5154188;27;20333;-73
2021/08/24 12:43:29;;;;;;;;;;;;;;;;;;5153983;27;19930;-73
2021/08/24 12:45:55;;;;;;;;;;;;;;;;;;5157287;27;20027;-72
2021/08/24 12:48:22;;;;;;;;;;;;;;;;;;5158226;27;19923;-72
2021/08/24 12:50:48;;;;;;;;;;;;;;;;;;5158319;27;19934;-73
2021/08/24 12:53:14;;;;;;;;;;;;;;;;;;5158227;27;19923;-73
2021/08/24 12:55:41;;;;;;;;;;;;;;;;;;5158337;27;19923;-73
2021/08/24 12:58:08;;;;;;;;;;;;;;;;;;5158079;27;19927;-74
2021/08/24 13:00:34;;;;;;;;;;;;;;;;;;5158231;27;19930;-73
2021/08/24 13:03:00;;;;;;;;;;;;;;;;;;5158057;27;20301;-73
2021/08/24 13:05:27;;;;;;;;;;;;;;;;;;5158080;27;19929;-73
2021/08/24 13:07:53;;;;;;;;;;;;;;;;;;5157573;27;19923;-73
2021/08/24 13:10:19;;;;;;;;;;;;;;;;;;5158356;27;19930;-73
2021/08/24 13:12:46;;;;;;;;;;;;;;;;;;5157594;27;19930;-72
2021/08/24 13:15:12;;;;;;;;;;;;;;;;;;5158002;27;19930;-73
2021/08/24 13:17:38;;;;;;;;;;;;;;;;;;5157462;27;20300;-73
2021/08/24 13:20:04;;;;;;;;;;;;;;;;;;5157448;27;19923;-73
2021/08/24 13:22:31;;;;;;;;;;;;;;;;;;5157909;27;19930;-72
2021/08/24 13:24:57;;;;;;;;;;;;;;;;;;5157602;27;19923;-74
2021/08/24 13:27:23;;;;;;;;;;;;;;;;;;5157522;27;19923;-71
2021/08/24 13:29:50;;;;;;;;;;;;;;;;;;5157500;27;19923;-71
2021/08/24 13:32:16;;;;;;;;;;;;;;;;;;5157952;27;20090;-73
2021/08/24 13:34:42;;;;;;;;;;;;;;;;;;5157264;27;19929;-71
2021/08/24 13:37:09;;;;;;;;;;;;;;;;;;5157278;27;20430;-73
2021/08/24 13:39:35;;;;;;;;;;;;;;;;;;5157622;27;19923;-74
2021/08/24 13:42:01;;;;;;;;;;;;;;;;;;5157628;27;19929;-72
2021/08/24 13:44:28;;;;;;;;;;;;;;;;;;5157218;27;19923;-74
2021/08/24 13:46:54;;;;;;;;;;;;;;;;;;5157333;27;19924;-73
2021/08/24 13:49:20;;;;;;;;;;;;;;;;;;5155958;27;19923;-72
2021/08/24 13:51:47;;;;;;;;;;;;;;;;;;5156400;27;19923;-73
2021/08/24 13:54:14;;;;;;;;;;;;;;;;;;5156985;27;20293;-72
2021/08/24 13:56:40;;;;;;;;;;;;;;;;;;5155988;27;20004;-73
2021/08/24 13:59:06;;;;;;;;;;;;;;;;;;5156959;27;20307;-72
2021/08/24 14:01:33;;;;;;;;;;;;;;;;;;5156804;27;19923;-74
2021/08/24 14:03:59;;;;;;;;;;;;;;;;;;5157108;27;19981;-74
2021/08/24 14:06:25;;;;;;;;;;;;;;;;;;5157152;27;19930;-73
2021/08/24 14:08:52;;;;;;;;;;;;;;;;;;5156394;27;20399;-72
2021/08/24 14:11:18;;;;;;;;;;;;;;;;;;5156503;27;19931;-72
2021/08/24 14:13:44;;;;;;;;;;;;;;;;;;5156634;27;19923;-74
2021/08/24 14:16:10;;;;;;;;;;;;;;;;;;5156551;27;19923;-73
2021/08/24 14:18:37;;;;;;;;;;;;;;;;;;5156571;27;19934;-73
2021/08/24 14:21:03;;;;;;;;;;;;;;;;;;5156486;27;19986;-73
2021/08/24 14:23:29;;;;;;;;;;;;;;;;;;5156534;27;20552;-73
2021/08/24 14:25:56;;;;;;;;;;;;;;;;;;5155933;27;20338;-73
2021/08/24 14:28:22;;;;;;;;;;;;;;;;;;5156611;27;19923;-73
2021/08/24 14:30:48;;;;;;;;;;;;;;;;;;5156791;27;19923;-73
2021/08/24 14:33:15;;;;;;;;;;;;;;;;;;5156320;27;20391;-73
2021/08/24 14:35:41;;;;;;;;;;;;;;;;;;5156327;27;19923;-73
2021/08/24 14:38:07;;;;;;;;;;;;;;;;;;5156324;27;19927;-73
2021/08/24 14:40:34;;;;;;;;;;;;;;;;;;5156134;27;19923;-73
2021/08/24 14:43:00;;;;;;;;;;;;;;;;;;5156375;27;19927;-73
2021/08/24 14:45:26;;;;;;;;;;;;;;;;;;5156412;27;19923;-73
2021/08/24 14:47:52;;;;;;;;;;;;;;;;;;5155853;27;20288;-73
2021/08/24 14:50:19;;;;;;;;;;;;;;;;;;5155856;27;19923;-73
2021/08/24 14:52:45;;;;;;;;;;;;;;;;;;5155942;27;19923;-73
2021/08/24 14:55:11;;;;;;;;;;;;;;;;;;5155900;27;20297;-73
2021/08/24 14:57:38;;;;;;;;;;;;;;;;;;5155618;27;19923;-73
2021/08/24 15:00:04;;;;;;;;;;;;;;;;;;5156078;27;19946;-74
2021/08/24 15:02:30;;;;;;;;;;;;;;;;;;5155719;27;19938;-73
2021/08/24 15:04:56;;;;;;;;;;;;;;;;;;5155680;27;19923;-72
2021/08/24 15:07:23;;;;;;;;;;;;;;;;;;5155583;27;20361;-73
2021/08/24 15:09:49;;;;;;;;;;;;;;;;;;5155336;27;19923;-72
2021/08/24 15:12:15;;;;;;;;;;;;;;;;;;5156096;27;19923;-73
2021/08/24 15:14:42;;;;;;;;;;;;;;;;;;5155278;27;20377;-73
2021/08/24 15:17:08;;;;;;;;;;;;;;;;;;5155849;27;19930;-73
2021/08/24 15:19:34;;;;;;;;;;;;;;;;;;5155432;27;19923;-73
2021/08/24 15:22:01;;;;;;;;;;;;;;;;;;5155207;27;19934;-73
2021/08/24 15:24:27;;;;;;;;;;;;;;;;;;5155591;27;19929;-73
2021/08/24 15:26:53;;;;;;;;;;;;;;;;;;5155266;27;20316;-73
2021/08/24 15:29:20;;;;;;;;;;;;;;;;;;5155245;27;19931;-73
2021/08/24 15:31:46;;;;;;;;;;;;;;;;;;5155131;27;19923;-73
2021/08/24 15:34:12;;;;;;;;;;;;;;;;;;5155364;27;19923;-73
2021/08/24 15:36:39;;;;;;;;;;;;;;;;;;5155020;27;19930;-73
2021/08/24 15:39:07;;;;;;;;;;;;;;;;;;5155322;27;19923;-73
2021/08/24 15:41:35;;;;;;;;;;;;;;;;;;5154820;27;20304;-73
2021/08/24 15:44:02;;;;;;;;;;;;;;;;;;5155117;27;19923;-73
2021/08/24 15:46:28;;;;;;;;;;;;;;;;;;5154823;27;20381;-73
2021/08/24 15:48:54;;;;;;;;;;;;;;;;;;5154369;27;19927;-73
2021/08/24 15:51:20;;;;;;;;;;;;;;;;;;5155137;27;19927;-73
2021/08/24 15:53:47;;;;;;;;;;;;;;;;;;5154546;27;19923;-73
2021/08/24 15:56:13;;;;;;;;;;;;;;;;;;5154928;27;19930;-72
2021/08/24 15:58:39;;;;;;;;;;;;;;;;;;5154468;27;20386;-73
2021/08/24 16:01:06;;;;;;;;;;;;;;;;;;5154813;27;19930;-74
2021/08/24 16:03:32;;;;;;;;;;;;;;;;;;5154923;27;19923;-73
2021/08/24 16:05:58;;;;;;;;;;;;;;;;;;5154268;27;19923;-73
2021/08/24 16:08:24;;;;;;;;;;;;;;;;;;5154742;27;19929;-73
2021/08/24 16:10:51;;;;;;;;;;;;;;;;;;5154187;27;20300;-73
2021/08/24 16:13:17;;;;;;;;;;;;;;;;;;5154629;27;19923;-73
2021/08/24 16:15:44;;;;;;;;;;;;;;;;;;5154423;27;19930;-73
2021/08/24 16:18:10;;;;;;;;;;;;;;;;;;5154682;27;20388;-74
2021/08/24 16:20:37;;;;;;;;;;;;;;;;;;5153360;27;19934;-73
2021/08/24 16:23:03;;;;;;;;;;;;;;;;;;5154587;27;19923;-73
2021/08/24 16:25:29;;;;;;;;;;;;;;;;;;5154293;27;19923;-73
2021/08/24 16:27:56;;;;;;;;;;;;;;;;;;5154258;27;19930;-73
2021/08/24 16:30:22;;;;;;;;;;;;;;;;;;5154656;27;19927;-73
2021/08/24 16:32:48;;;;;;;;;;;;;;;;;;5154111;27;19946;-73
2021/08/24 16:35:14;;;;;;;;;;;;;;;;;;5154219;27;19924;-73
2021/08/24 16:37:41;;;;;;;;;;;;;;;;;;5153949;27;19927;-73